sensor_id;sensor_type;location;lat;lon;timestamp;temperature;humidity
27162;DHT22;54464;50.558;9.704;2023-03-19T00:01:58;11.70;99.90
27162;DHT22;54464;50.558;9.704;2023-03-19T00:04:24;11.70;99.90
27162;DHT22;54464;50.558;9.704;2023-03-19T00:06:50;11.70;99.90
27162;DHT22;54464;50.558;9.704;2023-03-19T00:09:17;11.60;99.90
27162;DHT22;54464;50.558;9.704;2023-03-19T00:11:43;11.60;99.90
27162;DHT22;54464;50.558;9.704;2023-03-19T00:14:09;11.60;99.90
27162;DHT22;54464;50.558;9.704;2023-03-19T00:16:35;11.60;99.90
27162;DHT22;54464;50.558;9.704;2023-03-19T00:19:01;11.50;99.90
27162;DHT22;54464;50.558;9.704;2023-03-19T00:21:28;11.60;99.90
27162;DHT22;54464;50.558;9.704;2023-03-19T00:23:55;11.50;99.90
27162;DHT22;54464;50.558;9.704;2023-03-19T00:26:26;11.40;99.90
27162;DHT22;54464;50.558;9.704;2023-03-19T00:28:53;11.50;99.90
27162;DHT22;54464;50.558;9.704;2023-03-19T00:31:18;11.40;99.90
27162;DHT22;54464;50.558;9.704;2023-03-19T00:33:44;11.40;99.90
27162;DHT22;54464;50.558;9.704;2023-03-19T00:36:11;11.40;99.90
27162;DHT22;54464;50.558;9.704;2023-03-19T00:38:37;11.30;99.90
27162;DHT22;54464;50.558;9.704;2023-03-19T00:41:06;11.30;99.90
27162;DHT22;54464;50.558;9.704;2023-03-19T00:43:32;11.20;99.90
27162;DHT22;54464;50.558;9.704;2023-03-19T00:45:57;11.20;99.90
27162;DHT22;54464;50.558;9.704;2023-03-19T00:48:23;11.10;99.90
27162;DHT22;54464;50.558;9.704;2023-03-19T00:50:50;11.00;99.90
27162;DHT22;54464;50.558;9.704;2023-03-19T00:53:16;10.90;99.90
27162;DHT22;54464;50.558;9.704;2023-03-19T00:55:41;10.90;99.90
27162;DHT22;54464;50.558;9.704;2023-03-19T00:58:07;10.80;99.90
27162;DHT22;54464;50.558;9.704;2023-03-19T01:00:35;10.70;99.90
27162;DHT22;54464;50.558;9.704;2023-03-19T01:03:02;10.60;99.90
27162;DHT22;54464;50.558;9.704;2023-03-19T01:05:28;10.60;99.90
27162;DHT22;54464;50.558;9.704;2023-03-19T01:07:54;10.60;99.90
27162;DHT22;54464;50.558;9.704;2023-03-19T01:10:22;10.60;99.90
27162;DHT22;54464;50.558;9.704;2023-03-19T01:12:48;10.60;99.90
27162;DHT22;54464;50.558;9.704;2023-03-19T01:15:15;10.60;99.90
27162;DHT22;54464;50.558;9.704;2023-03-19T01:17:41;10.60;99.90
27162;DHT22;54464;50.558;9.704;2023-03-19T01:20:08;10.60;99.90
27162;DHT22;54464;50.558;9.704;2023-03-19T01:22:40;10.60;99.90
27162;DHT22;54464;50.558;9.704;2023-03-19T01:25:07;10.60;99.90
27162;DHT22;54464;50.558;9.704;2023-03-19T01:27:33;10.50;99.90
27162;DHT22;54464;50.558;9.704;2023-03-19T01:30:00;10.50;99.90
27162;DHT22;54464;50.558;9.704;2023-03-19T01:32:26;10.50;99.90
27162;DHT22;54464;50.558;9.704;2023-03-19T01:34:51;10.50;99.90
27162;DHT22;54464;50.558;9.704;2023-03-19T01:37:19;10.50;99.90
27162;DHT22;54464;50.558;9.704;2023-03-19T01:39:45;10.50;99.90
27162;DHT22;54464;50.558;9.704;2023-03-19T01:42:10;10.60;99.90
27162;DHT22;54464;50.558;9.704;2023-03-19T01:44:38;10.50;99.90
27162;DHT22;54464;50.558;9.704;2023-03-19T01:47:18;10.50;99.90
27162;DHT22;54464;50.558;9.704;2023-03-19T01:49:52;10.50;99.90
27162;DHT22;54464;50.558;9.704;2023-03-19T01:52:19;10.50;99.90
27162;DHT22;54464;50.558;9.704;2023-03-19T01:54:46;10.50;99.90
27162;DHT22;54464;50.558;9.704;2023-03-19T01:57:13;10.50;99.90
27162;DHT22;54464;50.558;9.704;2023-03-19T01:59:46;10.50;99.90
27162;DHT22;54464;50.558;9.704;2023-03-19T02:02:27;10.50;99.90
27162;DHT22;54464;50.558;9.704;2023-03-19T02:05:06;10.50;99.90
27162;DHT22;54464;50.558;9.704;2023-03-19T02:07:34;10.50;99.90
27162;DHT22;54464;50.558;9.704;2023-03-19T02:10:04;10.60;99.90
27162;DHT22;54464;50.558;9.704;2023-03-19T02:12:30;10.60;99.90
27162;DHT22;54464;50.558;9.704;2023-03-19T02:14:56;10.50;99.90
27162;DHT22;54464;50.558;9.704;2023-03-19T02:17:22;10.40;99.90
27162;DHT22;54464;50.558;9.704;2023-03-19T02:19:58;10.40;99.90
27162;DHT22;54464;50.558;9.704;2023-03-19T02:22:28;10.30;99.90
27162;DHT22;54464;50.558;9.704;2023-03-19T02:25:09;10.20;99.90
27162;DHT22;54464;50.558;9.704;2023-03-19T02:27:35;10.30;99.90
27162;DHT22;54464;50.558;9.704;2023-03-19T02:30:34;10.30;99.90
27162;DHT22;54464;50.558;9.704;2023-03-19T02:33:01;10.20;99.90
27162;DHT22;54464;50.558;9.704;2023-03-19T02:35:30;10.20;99.90
27162;DHT22;54464;50.558;9.704;2023-03-19T02:37:58;10.20;99.90
27162;DHT22;54464;50.558;9.704;2023-03-19T02:40:30;10.10;99.90
27162;DHT22;54464;50.558;9.704;2023-03-19T02:42:58;10.10;99.90
27162;DHT22;54464;50.558;9.704;2023-03-19T02:45:28;10.10;99.90
27162;DHT22;54464;50.558;9.704;2023-03-19T02:47:54;10.00;99.90
27162;DHT22;54464;50.558;9.704;2023-03-19T02:50:20;10.00;99.90
27162;DHT22;54464;50.558;9.704;2023-03-19T02:52:46;9.90;99.90
27162;DHT22;54464;50.558;9.704;2023-03-19T02:55:12;9.90;99.90
27162;DHT22;54464;50.558;9.704;2023-03-19T02:57:37;9.80;99.90
27162;DHT22;54464;50.558;9.704;2023-03-19T03:00:04;9.70;99.90
27162;DHT22;54464;50.558;9.704;2023-03-19T03:02:31;9.70;99.90
27162;DHT22;54464;50.558;9.704;2023-03-19T03:04:57;9.70;99.90
27162;DHT22;54464;50.558;9.704;2023-03-19T03:07:22;9.70;99.90
27162;DHT22;54464;50.558;9.704;2023-03-19T03:09:48;9.70;99.90
27162;DHT22;54464;50.558;9.704;2023-03-19T03:12:14;9.70;99.90
27162;DHT22;54464;50.558;9.704;2023-03-19T03:14:40;9.70;99.90
27162;DHT22;54464;50.558;9.704;2023-03-19T03:17:06;9.80;99.90
27162;DHT22;54464;50.558;9.704;2023-03-19T03:19:33;9.80;99.90
27162;DHT22;54464;50.558;9.704;2023-03-19T03:21:59;9.80;99.90
27162;DHT22;54464;50.558;9.704;2023-03-19T03:24:26;9.80;99.90
27162;DHT22;54464;50.558;9.704;2023-03-19T03:26:51;9.80;99.90
27162;DHT22;54464;50.558;9.704;2023-03-19T03:29:17;9.80;99.90
27162;DHT22;54464;50.558;9.704;2023-03-19T03:31:43;9.70;99.90
27162;DHT22;54464;50.558;9.704;2023-03-19T03:34:09;9.70;99.90
27162;DHT22;54464;50.558;9.704;2023-03-19T03:36:35;9.70;99.90
27162;DHT22;54464;50.558;9.704;2023-03-19T03:39:01;9.70;99.90
27162;DHT22;54464;50.558;9.704;2023-03-19T03:41:26;9.70;99.90
27162;DHT22;54464;50.558;9.704;2023-03-19T03:43:52;9.80;99.90
27162;DHT22;54464;50.558;9.704;2023-03-19T03:46:18;9.80;99.90
27162;DHT22;54464;50.558;9.704;2023-03-19T03:48:43;9.80;99.90
27162;DHT22;54464;50.558;9.704;2023-03-19T03:51:09;9.90;99.90
27162;DHT22;54464;50.558;9.704;2023-03-19T03:53:36;10.00;99.90
27162;DHT22;54464;50.558;9.704;2023-03-19T03:56:01;10.10;99.90
27162;DHT22;54464;50.558;9.704;2023-03-19T03:58:27;10.20;99.90
27162;DHT22;54464;50.558;9.704;2023-03-19T04:00:54;10.20;99.90
27162;DHT22;54464;50.558;9.704;2023-03-19T04:03:19;10.20;99.90
27162;DHT22;54464;50.558;9.704;2023-03-19T04:05:46;10.20;99.90
27162;DHT22;54464;50.558;9.704;2023-03-19T04:08:12;10.10;99.90
27162;DHT22;54464;50.558;9.704;2023-03-19T04:10:39;10.00;99.90
27162;DHT22;54464;50.558;9.704;2023-03-19T04:13:07;10.00;99.90
27162;DHT22;54464;50.558;9.704;2023-03-19T04:15:33;9.90;99.90
27162;DHT22;54464;50.558;9.704;2023-03-19T04:17:59;9.80;99.90
27162;DHT22;54464;50.558;9.704;2023-03-19T04:20:25;9.70;99.90
27162;DHT22;54464;50.558;9.704;2023-03-19T04:22:51;9.70;99.90
27162;DHT22;54464;50.558;9.704;2023-03-19T04:25:16;9.60;99.90
27162;DHT22;54464;50.558;9.704;2023-03-19T04:27:43;9.50;99.90
27162;DHT22;54464;50.558;9.704;2023-03-19T04:30:09;9.50;99.90
27162;DHT22;54464;50.558;9.704;2023-03-19T04:32:36;9.50;99.90
27162;DHT22;54464;50.558;9.704;2023-03-19T04:35:01;9.50;99.90
27162;DHT22;54464;50.558;9.704;2023-03-19T04:37:28;9.50;99.90
27162;DHT22;54464;50.558;9.704;2023-03-19T04:39:54;9.50;99.90
27162;DHT22;54464;50.558;9.704;2023-03-19T04:42:19;9.50;99.90
27162;DHT22;54464;50.558;9.704;2023-03-19T04:44:45;9.50;99.90
27162;DHT22;54464;50.558;9.704;2023-03-19T04:47:11;9.40;99.90
27162;DHT22;54464;50.558;9.704;2023-03-19T04:49:37;9.40;99.90
27162;DHT22;54464;50.558;9.704;2023-03-19T04:52:03;9.40;99.90
27162;DHT22;54464;50.558;9.704;2023-03-19T04:54:28;9.40;99.90
27162;DHT22;54464;50.558;9.704;2023-03-19T04:56:54;9.50;99.90
27162;DHT22;54464;50.558;9.704;2023-03-19T04:59:20;9.50;99.90
27162;DHT22;54464;50.558;9.704;2023-03-19T05:01:46;9.50;99.90
27162;DHT22;54464;50.558;9.704;2023-03-19T05:04:12;9.50;99.90
27162;DHT22;54464;50.558;9.704;2023-03-19T05:06:38;9.40;99.90
27162;DHT22;54464;50.558;9.704;2023-03-19T05:09:05;9.40;99.90
27162;DHT22;54464;50.558;9.704;2023-03-19T05:11:32;9.30;99.90
27162;DHT22;54464;50.558;9.704;2023-03-19T05:13:57;9.20;99.90
27162;DHT22;54464;50.558;9.704;2023-03-19T05:16:23;9.30;99.90
27162;DHT22;54464;50.558;9.704;2023-03-19T05:18:49;9.20;99.90
27162;DHT22;54464;50.558;9.704;2023-03-19T05:21:14;9.30;99.90
27162;DHT22;54464;50.558;9.704;2023-03-19T05:23:41;9.30;99.90
27162;DHT22;54464;50.558;9.704;2023-03-19T05:26:07;9.30;99.90
27162;DHT22;54464;50.558;9.704;2023-03-19T05:28:33;9.20;99.90
27162;DHT22;54464;50.558;9.704;2023-03-19T05:30:59;9.30;99.90
27162;DHT22;54464;50.558;9.704;2023-03-19T05:33:24;9.30;99.90
27162;DHT22;54464;50.558;9.704;2023-03-19T05:35:50;9.30;99.90
27162;DHT22;54464;50.558;9.704;2023-03-19T05:38:17;9.40;99.90
27162;DHT22;54464;50.558;9.704;2023-03-19T05:40:43;9.40;99.90
27162;DHT22;54464;50.558;9.704;2023-03-19T05:43:09;9.50;99.90
27162;DHT22;54464;50.558;9.704;2023-03-19T05:45:36;9.50;99.90
27162;DHT22;54464;50.558;9.704;2023-03-19T05:48:03;9.50;99.90
27162;DHT22;54464;50.558;9.704;2023-03-19T05:50:29;9.50;99.90
27162;DHT22;54464;50.558;9.704;2023-03-19T05:52:56;9.50;99.90
27162;DHT22;54464;50.558;9.704;2023-03-19T05:55:22;9.60;99.90
27162;DHT22;54464;50.558;9.704;2023-03-19T05:57:48;9.60;99.90
27162;DHT22;54464;50.558;9.704;2023-03-19T06:00:14;9.60;99.90
27162;DHT22;54464;50.558;9.704;2023-03-19T06:02:40;9.60;99.90
27162;DHT22;54464;50.558;9.704;2023-03-19T06:05:08;9.60;99.90
27162;DHT22;54464;50.558;9.704;2023-03-19T06:07:34;9.60;99.90
27162;DHT22;54464;50.558;9.704;2023-03-19T06:10:00;9.60;99.90
27162;DHT22;54464;50.558;9.704;2023-03-19T06:12:26;9.60;99.90
27162;DHT22;54464;50.558;9.704;2023-03-19T06:14:52;9.60;99.90
27162;DHT22;54464;50.558;9.704;2023-03-19T06:17:18;9.60;99.90
27162;DHT22;54464;50.558;9.704;2023-03-19T06:19:43;9.70;99.90
27162;DHT22;54464;50.558;9.704;2023-03-19T06:22:09;9.60;99.90
27162;DHT22;54464;50.558;9.704;2023-03-19T06:24:35;9.60;99.90
27162;DHT22;54464;50.558;9.704;2023-03-19T06:27:01;9.70;99.90
27162;DHT22;54464;50.558;9.704;2023-03-19T06:29:27;9.70;99.90
27162;DHT22;54464;50.558;9.704;2023-03-19T06:31:53;9.70;99.90
27162;DHT22;54464;50.558;9.704;2023-03-19T06:34:19;9.80;99.90
27162;DHT22;54464;50.558;9.704;2023-03-19T06:36:45;9.80;99.90
27162;DHT22;54464;50.558;9.704;2023-03-19T06:39:11;9.90;99.90
27162;DHT22;54464;50.558;9.704;2023-03-19T06:41:37;9.90;99.90
27162;DHT22;54464;50.558;9.704;2023-03-19T06:44:03;9.90;99.90
27162;DHT22;54464;50.558;9.704;2023-03-19T06:46:29;10.00;99.90
27162;DHT22;54464;50.558;9.704;2023-03-19T06:48:54;10.00;99.90
27162;DHT22;54464;50.558;9.704;2023-03-19T06:51:20;10.00;99.90
27162;DHT22;54464;50.558;9.704;2023-03-19T06:53:46;10.00;99.90
27162;DHT22;54464;50.558;9.704;2023-03-19T06:56:12;10.00;99.90
27162;DHT22;54464;50.558;9.704;2023-03-19T06:58:37;10.10;99.90
27162;DHT22;54464;50.558;9.704;2023-03-19T07:01:03;10.10;99.90
27162;DHT22;54464;50.558;9.704;2023-03-19T07:03:29;10.20;99.90
27162;DHT22;54464;50.558;9.704;2023-03-19T07:05:55;10.20;99.90
27162;DHT22;54464;50.558;9.704;2023-03-19T07:08:20;10.20;99.90
27162;DHT22;54464;50.558;9.704;2023-03-19T07:10:46;10.20;99.90
27162;DHT22;54464;50.558;9.704;2023-03-19T07:13:12;10.30;99.90
27162;DHT22;54464;50.558;9.704;2023-03-19T07:15:38;10.30;99.90
27162;DHT22;54464;50.558;9.704;2023-03-19T07:18:04;10.30;99.90
27162;DHT22;54464;50.558;9.704;2023-03-19T07:20:30;10.30;99.90
27162;DHT22;54464;50.558;9.704;2023-03-19T07:22:55;10.30;99.90
27162;DHT22;54464;50.558;9.704;2023-03-19T07:25:21;10.40;99.90
27162;DHT22;54464;50.558;9.704;2023-03-19T07:27:47;10.40;99.90
27162;DHT22;54464;50.558;9.704;2023-03-19T07:30:13;10.50;99.90
27162;DHT22;54464;50.558;9.704;2023-03-19T07:32:39;10.50;99.90
27162;DHT22;54464;50.558;9.704;2023-03-19T07:35:06;10.50;99.90
27162;DHT22;54464;50.558;9.704;2023-03-19T07:37:32;10.40;99.90
27162;DHT22;54464;50.558;9.704;2023-03-19T07:39:58;10.40;99.90
27162;DHT22;54464;50.558;9.704;2023-03-19T07:42:24;10.50;99.90
27162;DHT22;54464;50.558;9.704;2023-03-19T07:44:49;10.40;99.90
27162;DHT22;54464;50.558;9.704;2023-03-19T07:47:15;10.40;99.90
27162;DHT22;54464;50.558;9.704;2023-03-19T07:49:41;10.40;99.90
27162;DHT22;54464;50.558;9.704;2023-03-19T07:52:08;10.40;99.90
27162;DHT22;54464;50.558;9.704;2023-03-19T07:54:33;10.40;99.90
27162;DHT22;54464;50.558;9.704;2023-03-19T07:57:00;10.40;99.90
27162;DHT22;54464;50.558;9.704;2023-03-19T07:59:25;10.40;99.90
27162;DHT22;54464;50.558;9.704;2023-03-19T08:01:51;10.30;99.90
27162;DHT22;54464;50.558;9.704;2023-03-19T08:04:17;10.30;99.90
27162;DHT22;54464;50.558;9.704;2023-03-19T08:06:42;10.30;99.90
27162;DHT22;54464;50.558;9.704;2023-03-19T08:09:08;10.30;99.90
27162;DHT22;54464;50.558;9.704;2023-03-19T08:11:34;10.30;99.90
27162;DHT22;54464;50.558;9.704;2023-03-19T08:14:00;10.40;99.90
27162;DHT22;54464;50.558;9.704;2023-03-19T08:16:26;10.50;99.90
27162;DHT22;54464;50.558;9.704;2023-03-19T08:18:51;10.50;99.90
27162;DHT22;54464;50.558;9.704;2023-03-19T08:21:17;10.60;99.90
27162;DHT22;54464;50.558;9.704;2023-03-19T08:23:43;10.60;99.90
27162;DHT22;54464;50.558;9.704;2023-03-19T08:26:09;10.70;99.90
27162;DHT22;54464;50.558;9.704;2023-03-19T08:28:35;10.80;99.90
27162;DHT22;54464;50.558;9.704;2023-03-19T08:31:06;10.90;99.90
27162;DHT22;54464;50.558;9.704;2023-03-19T08:33:32;10.90;99.90
27162;DHT22;54464;50.558;9.704;2023-03-19T08:36:08;11.00;99.90
27162;DHT22;54464;50.558;9.704;2023-03-19T08:38:35;11.10;99.90
27162;DHT22;54464;50.558;9.704;2023-03-19T08:41:00;11.20;99.90
27162;DHT22;54464;50.558;9.704;2023-03-19T08:43:29;11.30;99.90
27162;DHT22;54464;50.558;9.704;2023-03-19T08:45:55;11.40;99.90
27162;DHT22;54464;50.558;9.704;2023-03-19T08:48:20;11.30;99.90
27162;DHT22;54464;50.558;9.704;2023-03-19T08:50:54;11.40;99.90
27162;DHT22;54464;50.558;9.704;2023-03-19T08:53:21;11.40;99.90
27162;DHT22;54464;50.558;9.704;2023-03-19T08:55:58;11.50;99.90
27162;DHT22;54464;50.558;9.704;2023-03-19T08:58:24;11.60;99.90
27162;DHT22;54464;50.558;9.704;2023-03-19T09:00:51;11.60;99.90
27162;DHT22;54464;50.558;9.704;2023-03-19T09:03:19;11.60;99.90
27162;DHT22;54464;50.558;9.704;2023-03-19T09:05:45;11.70;99.90
27162;DHT22;54464;50.558;9.704;2023-03-19T09:08:12;11.70;99.90
27162;DHT22;54464;50.558;9.704;2023-03-19T09:10:38;11.80;99.90
27162;DHT22;54464;50.558;9.704;2023-03-19T09:13:04;11.70;99.90
27162;DHT22;54464;50.558;9.704;2023-03-19T09:15:30;11.70;99.90
27162;DHT22;54464;50.558;9.704;2023-03-19T09:17:56;11.70;99.90
27162;DHT22;54464;50.558;9.704;2023-03-19T09:20:21;11.70;99.90
27162;DHT22;54464;50.558;9.704;2023-03-19T09:22:50;11.70;99.90
27162;DHT22;54464;50.558;9.704;2023-03-19T09:25:16;11.80;99.90
27162;DHT22;54464;50.558;9.704;2023-03-19T09:27:41;11.90;99.90
27162;DHT22;54464;50.558;9.704;2023-03-19T09:30:07;12.10;99.90
27162;DHT22;54464;50.558;9.704;2023-03-19T09:32:36;12.20;99.90
27162;DHT22;54464;50.558;9.704;2023-03-19T09:35:02;12.30;99.90
27162;DHT22;54464;50.558;9.704;2023-03-19T09:37:28;12.40;99.90
27162;DHT22;54464;50.558;9.704;2023-03-19T09:39:53;12.40;99.90
27162;DHT22;54464;50.558;9.704;2023-03-19T09:45:15;12.30;99.90
27162;DHT22;54464;50.558;9.704;2023-03-19T09:47:41;12.40;99.90
27162;DHT22;54464;50.558;9.704;2023-03-19T09:50:23;12.50;99.90
27162;DHT22;54464;50.558;9.704;2023-03-19T09:53:11;12.70;99.90
27162;DHT22;54464;50.558;9.704;2023-03-19T09:55:48;12.90;99.90
27162;DHT22;54464;50.558;9.704;2023-03-19T09:58:27;13.10;99.90
27162;DHT22;54464;50.558;9.704;2023-03-19T10:00:55;13.10;99.90
27162;DHT22;54464;50.558;9.704;2023-03-19T10:06:33;13.20;99.90
27162;DHT22;54464;50.558;9.704;2023-03-19T10:14:54;13.50;99.90
27162;DHT22;54464;50.558;9.704;2023-03-19T10:17:33;13.60;99.90
27162;DHT22;54464;50.558;9.704;2023-03-19T10:20:14;13.70;99.90
27162;DHT22;54464;50.558;9.704;2023-03-19T10:22:52;13.80;99.90
27162;DHT22;54464;50.558;9.704;2023-03-19T10:25:22;13.90;99.90
27162;DHT22;54464;50.558;9.704;2023-03-19T10:27:55;13.90;99.90
27162;DHT22;54464;50.558;9.704;2023-03-19T10:30:24;14.10;99.90
27162;DHT22;54464;50.558;9.704;2023-03-19T10:33:08;14.20;99.60
27162;DHT22;54464;50.558;9.704;2023-03-19T10:35:47;14.30;99.60
27162;DHT22;54464;50.558;9.704;2023-03-19T10:38:22;14.30;99.60
27162;DHT22;54464;50.558;9.704;2023-03-19T10:43:40;14.50;99.80
27162;DHT22;54464;50.558;9.704;2023-03-19T10:46:11;14.50;99.00
27162;DHT22;54464;50.558;9.704;2023-03-19T10:48:43;14.40;99.70
27162;DHT22;54464;50.558;9.704;2023-03-19T10:51:15;14.40;99.50
27162;DHT22;54464;50.558;9.704;2023-03-19T10:53:43;14.30;99.40
27162;DHT22;54464;50.558;9.704;2023-03-19T10:56:19;14.20;99.50
27162;DHT22;54464;50.558;9.704;2023-03-19T10:59:00;14.20;99.70
27162;DHT22;54464;50.558;9.704;2023-03-19T11:01:33;14.30;99.50
27162;DHT22;54464;50.558;9.704;2023-03-19T11:04:19;14.50;99.00
27162;DHT22;54464;50.558;9.704;2023-03-19T11:06:53;15.00;98.00
27162;DHT22;54464;50.558;9.704;2023-03-19T11:10:02;15.70;97.10
27162;DHT22;54464;50.558;9.704;2023-03-19T11:12:32;16.10;96.00
27162;DHT22;54464;50.558;9.704;2023-03-19T11:14:59;16.20;96.10
27162;DHT22;54464;50.558;9.704;2023-03-19T11:20:19;19.50;90.70
27162;DHT22;54464;50.558;9.704;2023-03-19T11:22:48;20.30;90.00
27162;DHT22;54464;50.558;9.704;2023-03-19T11:25:24;21.50;83.40
27162;DHT22;54464;50.558;9.704;2023-03-19T11:28:21;21.30;82.60
27162;DHT22;54464;50.558;9.704;2023-03-19T11:31:18;21.70;82.90
27162;DHT22;54464;50.558;9.704;2023-03-19T11:33:56;22.60;80.10
27162;DHT22;54464;50.558;9.704;2023-03-19T11:48:05;22.20;81.10
27162;DHT22;54464;50.558;9.704;2023-03-19T12:02:57;19.80;89.80
27162;DHT22;54464;50.558;9.704;2023-03-19T12:05:30;19.50;88.20
27162;DHT22;54464;50.558;9.704;2023-03-19T12:30:13;16.60;94.30
27162;DHT22;54464;50.558;9.704;2023-03-19T12:35:39;15.80;95.90
27162;DHT22;54464;50.558;9.704;2023-03-19T12:38:12;15.60;95.80
27162;DHT22;54464;50.558;9.704;2023-03-19T12:40:52;15.70;95.70
27162;DHT22;54464;50.558;9.704;2023-03-19T12:43:45;15.50;95.90
27162;DHT22;54464;50.558;9.704;2023-03-19T12:46:27;15.20;96.70
27162;DHT22;54464;50.558;9.704;2023-03-19T12:49:08;15.10;97.10
27162;DHT22;54464;50.558;9.704;2023-03-19T12:51:41;15.00;97.20
27162;DHT22;54464;50.558;9.704;2023-03-19T12:54:21;14.90;97.30
27162;DHT22;54464;50.558;9.704;2023-03-19T13:10:08;15.50;96.20
27162;DHT22;54464;50.558;9.704;2023-03-19T13:12:36;15.50;95.60
27162;DHT22;54464;50.558;9.704;2023-03-19T13:23:33;15.20;99.10
27162;DHT22;54464;50.558;9.704;2023-03-19T13:26:00;15.50;99.30
27162;DHT22;54464;50.558;9.704;2023-03-19T13:28:31;17.40;96.10
27162;DHT22;54464;50.558;9.704;2023-03-19T13:31:17;18.70;93.50
27162;DHT22;54464;50.558;9.704;2023-03-19T13:34:03;18.10;94.60
27162;DHT22;54464;50.558;9.704;2023-03-19T13:36:35;17.20;94.60
27162;DHT22;54464;50.558;9.704;2023-03-19T13:39:02;18.50;94.60
27162;DHT22;54464;50.558;9.704;2023-03-19T13:43:58;18.30;92.30
27162;DHT22;54464;50.558;9.704;2023-03-19T13:46:35;17.10;92.20
27162;DHT22;54464;50.558;9.704;2023-03-19T13:51:58;16.10;93.80
27162;DHT22;54464;50.558;9.704;2023-03-19T13:54:39;15.80;94.50
27162;DHT22;54464;50.558;9.704;2023-03-19T13:59:44;15.30;94.30
27162;DHT22;54464;50.558;9.704;2023-03-19T14:05:03;15.10;95.10
27162;DHT22;54464;50.558;9.704;2023-03-19T14:07:35;15.00;95.40
27162;DHT22;54464;50.558;9.704;2023-03-19T14:12:39;14.70;99.90
27162;DHT22;54464;50.558;9.704;2023-03-19T14:17:43;14.60;99.90
27162;DHT22;54464;50.558;9.704;2023-03-19T14:26:03;14.70;99.90
27162;DHT22;54464;50.558;9.704;2023-03-19T14:31:32;14.40;99.90
27162;DHT22;54464;50.558;9.704;2023-03-19T14:36:27;14.40;99.90
27162;DHT22;54464;50.558;9.704;2023-03-19T14:38:56;14.30;99.90
27162;DHT22;54464;50.558;9.704;2023-03-19T14:41:26;14.30;99.90
27162;DHT22;54464;50.558;9.704;2023-03-19T14:46:48;14.30;99.90
27162;DHT22;54464;50.558;9.704;2023-03-19T14:52:15;14.40;99.90
27162;DHT22;54464;50.558;9.704;2023-03-19T14:54:58;14.40;99.90
27162;DHT22;54464;50.558;9.704;2023-03-19T14:57:29;14.40;99.90
27162;DHT22;54464;50.558;9.704;2023-03-19T14:59:57;14.30;99.90
27162;DHT22;54464;50.558;9.704;2023-03-19T15:02:39;14.40;99.90
27162;DHT22;54464;50.558;9.704;2023-03-19T15:05:26;14.50;99.90
27162;DHT22;54464;50.558;9.704;2023-03-19T15:07:55;14.70;99.90
27162;DHT22;54464;50.558;9.704;2023-03-19T15:10:24;14.70;99.90
27162;DHT22;54464;50.558;9.704;2023-03-19T15:18:09;14.90;98.90
27162;DHT22;54464;50.558;9.704;2023-03-19T15:20:38;15.30;97.70
27162;DHT22;54464;50.558;9.704;2023-03-19T15:23:09;15.60;97.60
27162;DHT22;54464;50.558;9.704;2023-03-19T15:25:46;15.80;95.20
27162;DHT22;54464;50.558;9.704;2023-03-19T15:28:15;15.70;94.90
27162;DHT22;54464;50.558;9.704;2023-03-19T15:30:42;15.70;94.90
27162;DHT22;54464;50.558;9.704;2023-03-19T15:33:21;15.80;95.30
27162;DHT22;54464;50.558;9.704;2023-03-19T15:35:57;15.90;95.50
27162;DHT22;54464;50.558;9.704;2023-03-19T15:38:27;16.00;95.40
27162;DHT22;54464;50.558;9.704;2023-03-19T15:40:54;16.00;95.30
27162;DHT22;54464;50.558;9.704;2023-03-19T15:43:20;15.70;95.50
27162;DHT22;54464;50.558;9.704;2023-03-19T15:45:49;15.70;96.10
27162;DHT22;54464;50.558;9.704;2023-03-19T15:48:19;15.70;96.10
27162;DHT22;54464;50.558;9.704;2023-03-19T15:50:48;15.60;96.40
27162;DHT22;54464;50.558;9.704;2023-03-19T15:53:19;15.60;96.50
27162;DHT22;54464;50.558;9.704;2023-03-19T15:55:48;15.50;96.50
27162;DHT22;54464;50.558;9.704;2023-03-19T15:58:21;15.30;96.80
27162;DHT22;54464;50.558;9.704;2023-03-19T16:00:47;15.10;97.10
27162;DHT22;54464;50.558;9.704;2023-03-19T16:03:42;15.10;97.60
27162;DHT22;54464;50.558;9.704;2023-03-19T16:06:27;14.90;98.20
27162;DHT22;54464;50.558;9.704;2023-03-19T16:08:56;14.60;98.80
27162;DHT22;54464;50.558;9.704;2023-03-19T16:11:37;14.40;99.10
27162;DHT22;54464;50.558;9.704;2023-03-19T16:16:45;14.40;99.30
27162;DHT22;54464;50.558;9.704;2023-03-19T16:21:57;14.20;99.70
27162;DHT22;54464;50.558;9.704;2023-03-19T16:24:24;14.10;99.70
27162;DHT22;54464;50.558;9.704;2023-03-19T16:26:57;14.00;99.90
27162;DHT22;54464;50.558;9.704;2023-03-19T16:29:25;13.90;99.90
27162;DHT22;54464;50.558;9.704;2023-03-19T16:31:58;13.80;99.90
27162;DHT22;54464;50.558;9.704;2023-03-19T16:36:52;13.60;99.90
27162;DHT22;54464;50.558;9.704;2023-03-19T16:44:33;13.30;99.90
27162;DHT22;54464;50.558;9.704;2023-03-19T16:46:59;13.20;99.90
27162;DHT22;54464;50.558;9.704;2023-03-19T16:49:25;13.20;99.90
27162;DHT22;54464;50.558;9.704;2023-03-19T16:51:51;13.20;99.90
27162;DHT22;54464;50.558;9.704;2023-03-19T16:54:17;13.20;99.90
27162;DHT22;54464;50.558;9.704;2023-03-19T16:56:42;13.20;99.90
27162;DHT22;54464;50.558;9.704;2023-03-19T16:59:18;13.20;99.90
27162;DHT22;54464;50.558;9.704;2023-03-19T17:01:45;13.20;99.90
27162;DHT22;54464;50.558;9.704;2023-03-19T17:04:14;13.20;99.90
27162;DHT22;54464;50.558;9.704;2023-03-19T17:06:42;13.20;99.90
27162;DHT22;54464;50.558;9.704;2023-03-19T17:09:08;13.20;99.90
27162;DHT22;54464;50.558;9.704;2023-03-19T17:11:36;13.30;99.90
27162;DHT22;54464;50.558;9.704;2023-03-19T17:14:04;13.30;99.90
27162;DHT22;54464;50.558;9.704;2023-03-19T17:16:31;13.30;99.90
27162;DHT22;54464;50.558;9.704;2023-03-19T17:18:57;13.30;99.90
27162;DHT22;54464;50.558;9.704;2023-03-19T17:21:28;13.30;99.90
27162;DHT22;54464;50.558;9.704;2023-03-19T17:23:55;13.20;99.90
27162;DHT22;54464;50.558;9.704;2023-03-19T17:26:23;13.20;99.90
27162;DHT22;54464;50.558;9.704;2023-03-19T17:28:53;13.10;99.90
27162;DHT22;54464;50.558;9.704;2023-03-19T17:31:27;13.00;99.90
27162;DHT22;54464;50.558;9.704;2023-03-19T17:34:09;12.90;99.90
27162;DHT22;54464;50.558;9.704;2023-03-19T17:36:35;12.70;99.90
27162;DHT22;54464;50.558;9.704;2023-03-19T17:39:02;12.70;99.90
27162;DHT22;54464;50.558;9.704;2023-03-19T17:41:29;12.60;99.90
27162;DHT22;54464;50.558;9.704;2023-03-19T17:43:54;12.50;99.90
27162;DHT22;54464;50.558;9.704;2023-03-19T17:46:22;12.40;99.90
27162;DHT22;54464;50.558;9.704;2023-03-19T17:48:49;12.40;99.90
27162;DHT22;54464;50.558;9.704;2023-03-19T17:51:16;12.40;99.90
27162;DHT22;54464;50.558;9.704;2023-03-19T17:53:46;12.30;99.90
27162;DHT22;54464;50.558;9.704;2023-03-19T17:56:15;12.40;99.90
27162;DHT22;54464;50.558;9.704;2023-03-19T17:58:42;12.30;99.90
27162;DHT22;54464;50.558;9.704;2023-03-19T18:01:16;12.30;99.90
27162;DHT22;54464;50.558;9.704;2023-03-19T18:03:43;12.30;99.90
27162;DHT22;54464;50.558;9.704;2023-03-19T18:06:17;12.30;99.90